sensor_id;sensor_type;location;lat;lon;timestamp;P1;durP1;ratioP1;P2;durP2;ratioP2
9128;SDS011;4599;50.906;6.786;2023-06-24T00:01:22;7.00;;;6.30;;
9128;SDS011;4599;50.906;6.786;2023-06-24T00:05:24;9.57;;;6.70;;
9128;SDS011;4599;50.906;6.786;2023-06-24T00:09:26;9.07;;;6.87;;
9128;SDS011;4599;50.906;6.786;2023-06-24T00:13:28;10.10;;;6.33;;
9128;SDS011;4599;50.906;6.786;2023-06-24T00:17:30;8.33;;;6.73;;
9128;SDS011;4599;50.906;6.786;2023-06-24T00:21:31;9.23;;;6.90;;
9128;SDS011;4599;50.906;6.786;2023-06-24T00:25:33;12.63;;;7.20;;
9128;SDS011;4599;50.906;6.786;2023-06-24T00:29:36;9.50;;;7.43;;
9128;SDS011;4599;50.906;6.786;2023-06-24T00:33:37;7.57;;;6.77;;
9128;SDS011;4599;50.906;6.786;2023-06-24T00:37:39;7.57;;;6.83;;
9128;SDS011;4599;50.906;6.786;2023-06-24T00:41:41;9.80;;;7.30;;
9128;SDS011;4599;50.906;6.786;2023-06-24T00:45:44;12.03;;;7.53;;
9128;SDS011;4599;50.906;6.786;2023-06-24T00:49:46;11.40;;;7.90;;
9128;SDS011;4599;50.906;6.786;2023-06-24T00:53:48;10.03;;;7.47;;
9128;SDS011;4599;50.906;6.786;2023-06-24T00:57:50;10.77;;;7.27;;
9128;SDS011;4599;50.906;6.786;2023-06-24T01:01:55;12.40;;;7.93;;
9128;SDS011;4599;50.906;6.786;2023-06-24T01:05:57;8.90;;;8.00;;
9128;SDS011;4599;50.906;6.786;2023-06-24T01:09:58;9.43;;;7.87;;
9128;SDS011;4599;50.906;6.786;2023-06-24T01:14:00;10.53;;;7.53;;
9128;SDS011;4599;50.906;6.786;2023-06-24T01:18:04;8.23;;;7.43;;
9128;SDS011;4599;50.906;6.786;2023-06-24T01:22:12;9.90;;;7.33;;
9128;SDS011;4599;50.906;6.786;2023-06-24T01:26:21;8.83;;;7.60;;
9128;SDS011;4599;50.906;6.786;2023-06-24T01:30:54;7.87;;;7.07;;
9128;SDS011;4599;50.906;6.786;2023-06-24T01:35:12;9.57;;;7.37;;
9128;SDS011;4599;50.906;6.786;2023-06-24T01:39:17;7.63;;;6.80;;
9128;SDS011;4599;50.906;6.786;2023-06-24T01:43:23;8.27;;;7.23;;
9128;SDS011;4599;50.906;6.786;2023-06-24T01:47:25;8.90;;;7.33;;
9128;SDS011;4599;50.906;6.786;2023-06-24T01:51:30;7.10;;;6.40;;
9128;SDS011;4599;50.906;6.786;2023-06-24T01:55:33;8.57;;;6.90;;
9128;SDS011;4599;50.906;6.786;2023-06-24T01:59:38;10.47;;;6.57;;
9128;SDS011;4599;50.906;6.786;2023-06-24T02:03:43;10.57;;;6.23;;
9128;SDS011;4599;50.906;6.786;2023-06-24T02:07:47;9.13;;;6.53;;
9128;SDS011;4599;50.906;6.786;2023-06-24T02:11:51;6.83;;;6.00;;
9128;SDS011;4599;50.906;6.786;2023-06-24T02:15:53;9.17;;;6.27;;
9128;SDS011;4599;50.906;6.786;2023-06-24T02:19:56;11.00;;;6.47;;
9128;SDS011;4599;50.906;6.786;2023-06-24T02:24:01;10.40;;;6.90;;
9128;SDS011;4599;50.906;6.786;2023-06-24T02:28:03;7.23;;;6.47;;
9128;SDS011;4599;50.906;6.786;2023-06-24T02:32:05;7.07;;;6.47;;
9128;SDS011;4599;50.906;6.786;2023-06-24T02:36:07;8.87;;;6.53;;
9128;SDS011;4599;50.906;6.786;2023-06-24T02:40:11;7.10;;;6.40;;
9128;SDS011;4599;50.906;6.786;2023-06-24T02:44:13;6.87;;;6.10;;
9128;SDS011;4599;50.906;6.786;2023-06-24T02:48:14;7.93;;;6.50;;
9128;SDS011;4599;50.906;6.786;2023-06-24T02:52:17;9.30;;;6.30;;
9128;SDS011;4599;50.906;6.786;2023-06-24T02:56:20;9.47;;;5.97;;
9128;SDS011;4599;50.906;6.786;2023-06-24T03:00:22;10.20;;;5.83;;
9128;SDS011;4599;50.906;6.786;2023-06-24T03:04:24;6.03;;;5.43;;
9128;SDS011;4599;50.906;6.786;2023-06-24T03:08:26;7.63;;;6.60;;
9128;SDS011;4599;50.906;6.786;2023-06-24T03:12:30;6.97;;;6.20;;
9128;SDS011;4599;50.906;6.786;2023-06-24T03:16:31;10.70;;;5.40;;
9128;SDS011;4599;50.906;6.786;2023-06-24T03:20:33;6.97;;;5.97;;
9128;SDS011;4599;50.906;6.786;2023-06-24T03:24:34;9.07;;;6.03;;
9128;SDS011;4599;50.906;6.786;2023-06-24T03:28:37;8.60;;;6.07;;
9128;SDS011;4599;50.906;6.786;2023-06-24T03:32:38;8.07;;;5.67;;
9128;SDS011;4599;50.906;6.786;2023-06-24T03:36:40;7.10;;;5.83;;
9128;SDS011;4599;50.906;6.786;2023-06-24T03:40:41;9.83;;;5.77;;
9128;SDS011;4599;50.906;6.786;2023-06-24T03:44:44;9.57;;;6.20;;
9128;SDS011;4599;50.906;6.786;2023-06-24T03:48:46;7.40;;;6.20;;
9128;SDS011;4599;50.906;6.786;2023-06-24T03:52:47;8.13;;;5.97;;
9128;SDS011;4599;50.906;6.786;2023-06-24T03:56:49;8.97;;;6.00;;
9128;SDS011;4599;50.906;6.786;2023-06-24T04:00:52;6.63;;;5.53;;
9128;SDS011;4599;50.906;6.786;2023-06-24T04:04:53;12.83;;;6.10;;
9128;SDS011;4599;50.906;6.786;2023-06-24T04:08:55;8.77;;;5.60;;
9128;SDS011;4599;50.906;6.786;2023-06-24T04:12:56;7.00;;;5.80;;
9128;SDS011;4599;50.906;6.786;2023-06-24T04:16:59;9.53;;;5.80;;
9128;SDS011;4599;50.906;6.786;2023-06-24T04:21:00;7.53;;;6.00;;
9128;SDS011;4599;50.906;6.786;2023-06-24T04:25:02;9.47;;;5.67;;
9128;SDS011;4599;50.906;6.786;2023-06-24T04:29:04;7.17;;;5.80;;
9128;SDS011;4599;50.906;6.786;2023-06-24T04:33:07;13.93;;;5.90;;
9128;SDS011;4599;50.906;6.786;2023-06-24T04:37:08;8.37;;;5.77;;
9128;SDS011;4599;50.906;6.786;2023-06-24T04:41:10;7.73;;;5.73;;
9128;SDS011;4599;50.906;6.786;2023-06-24T04:45:12;8.30;;;5.77;;
9128;SDS011;4599;50.906;6.786;2023-06-24T04:49:15;10.57;;;5.50;;
9128;SDS011;4599;50.906;6.786;2023-06-24T04:53:16;10.37;;;5.87;;
9128;SDS011;4599;50.906;6.786;2023-06-24T04:57:24;8.13;;;5.63;;
9128;SDS011;4599;50.906;6.786;2023-06-24T05:01:27;9.83;;;5.57;;
9128;SDS011;4599;50.906;6.786;2023-06-24T05:05:30;8.60;;;5.67;;
9128;SDS011;4599;50.906;6.786;2023-06-24T05:09:36;7.00;;;5.20;;
9128;SDS011;4599;50.906;6.786;2023-06-24T05:13:37;11.23;;;6.00;;
9128;SDS011;4599;50.906;6.786;2023-06-24T05:17:39;8.03;;;5.80;;
9128;SDS011;4599;50.906;6.786;2023-06-24T05:21:42;10.60;;;5.73;;
9128;SDS011;4599;50.906;6.786;2023-06-24T05:25:43;12.40;;;5.50;;
9128;SDS011;4599;50.906;6.786;2023-06-24T05:29:45;7.87;;;5.23;;
9128;SDS011;4599;50.906;6.786;2023-06-24T05:33:46;12.53;;;5.30;;
9128;SDS011;4599;50.906;6.786;2023-06-24T05:37:49;11.17;;;5.30;;
9128;SDS011;4599;50.906;6.786;2023-06-24T05:41:50;7.47;;;5.33;;
9128;SDS011;4599;50.906;6.786;2023-06-24T05:45:52;10.50;;;5.67;;
9128;SDS011;4599;50.906;6.786;2023-06-24T05:49:53;13.00;;;6.00;;
9128;SDS011;4599;50.906;6.786;2023-06-24T05:53:56;11.70;;;5.33;;
9128;SDS011;4599;50.906;6.786;2023-06-24T05:57:58;12.90;;;5.63;;
9128;SDS011;4599;50.906;6.786;2023-06-24T06:01:59;8.07;;;5.33;;
9128;SDS011;4599;50.906;6.786;2023-06-24T06:06:01;9.60;;;5.27;;
9128;SDS011;4599;50.906;6.786;2023-06-24T06:10:04;8.97;;;5.37;;
9128;SDS011;4599;50.906;6.786;2023-06-24T06:14:05;12.80;;;6.17;;
9128;SDS011;4599;50.906;6.786;2023-06-24T06:18:07;11.53;;;5.63;;
9128;SDS011;4599;50.906;6.786;2023-06-24T06:22:09;9.00;;;5.60;;
9128;SDS011;4599;50.906;6.786;2023-06-24T06:26:12;9.73;;;5.50;;
9128;SDS011;4599;50.906;6.786;2023-06-24T06:30:13;11.47;;;5.90;;
9128;SDS011;4599;50.906;6.786;2023-06-24T06:34:15;9.67;;;6.20;;
9128;SDS011;4599;50.906;6.786;2023-06-24T06:38:16;10.37;;;6.00;;
9128;SDS011;4599;50.906;6.786;2023-06-24T06:42:19;10.57;;;5.50;;
9128;SDS011;4599;50.906;6.786;2023-06-24T06:46:21;16.70;;;6.53;;
9128;SDS011;4599;50.906;6.786;2023-06-24T06:50:22;12.17;;;6.23;;
9128;SDS011;4599;50.906;6.786;2023-06-24T06:54:24;9.20;;;5.57;;
9128;SDS011;4599;50.906;6.786;2023-06-24T06:58:26;11.67;;;5.77;;
9128;SDS011;4599;50.906;6.786;2023-06-24T07:02:28;9.60;;;5.57;;
9128;SDS011;4599;50.906;6.786;2023-06-24T07:06:29;6.63;;;4.63;;
9128;SDS011;4599;50.906;6.786;2023-06-24T07:10:32;8.57;;;5.13;;
9128;SDS011;4599;50.906;6.786;2023-06-24T07:14:35;10.43;;;5.37;;
9128;SDS011;4599;50.906;6.786;2023-06-24T07:18:36;7.13;;;5.03;;
9128;SDS011;4599;50.906;6.786;2023-06-24T07:22:38;9.40;;;4.80;;
9128;SDS011;4599;50.906;6.786;2023-06-24T07:26:39;6.47;;;4.67;;
9128;SDS011;4599;50.906;6.786;2023-06-24T07:30:42;6.40;;;4.50;;
9128;SDS011;4599;50.906;6.786;2023-06-24T07:34:43;7.05;;;4.47;;
9128;SDS011;4599;50.906;6.786;2023-06-24T07:38:45;6.13;;;4.38;;
9128;SDS011;4599;50.906;6.786;2023-06-24T07:42:46;7.00;;;4.78;;
9128;SDS011;4599;50.906;6.786;2023-06-24T07:46:49;6.80;;;3.88;;
9128;SDS011;4599;50.906;6.786;2023-06-24T07:50:51;7.25;;;4.15;;
9128;SDS011;4599;50.906;6.786;2023-06-24T07:54:53;6.80;;;4.47;;
9128;SDS011;4599;50.906;6.786;2023-06-24T07:58:54;7.72;;;3.95;;
9128;SDS011;4599;50.906;6.786;2023-06-24T08:02:58;5.90;;;4.38;;
9128;SDS011;4599;50.906;6.786;2023-06-24T08:06:59;6.68;;;4.00;;
9128;SDS011;4599;50.906;6.786;2023-06-24T08:11:02;4.95;;;4.15;;
9128;SDS011;4599;50.906;6.786;2023-06-24T08:15:04;7.15;;;4.88;;
9128;SDS011;4599;50.906;6.786;2023-06-24T08:19:08;10.77;;;4.63;;
9128;SDS011;4599;50.906;6.786;2023-06-24T08:23:09;10.10;;;4.65;;
9128;SDS011;4599;50.906;6.786;2023-06-24T08:27:11;7.72;;;4.80;;
9128;SDS011;4599;50.906;6.786;2023-06-24T08:31:12;7.70;;;4.78;;
9128;SDS011;4599;50.906;6.786;2023-06-24T08:35:16;6.75;;;5.45;;
9128;SDS011;4599;50.906;6.786;2023-06-24T08:39:17;6.78;;;5.13;;
9128;SDS011;4599;50.906;6.786;2023-06-24T08:43:19;6.60;;;4.93;;
9128;SDS011;4599;50.906;6.786;2023-06-24T08:47:20;8.55;;;5.28;;
9128;SDS011;4599;50.906;6.786;2023-06-24T08:51:27;9.88;;;4.97;;
9128;SDS011;4599;50.906;6.786;2023-06-24T08:55:32;7.03;;;4.93;;
9128;SDS011;4599;50.906;6.786;2023-06-24T08:59:57;6.45;;;4.97;;
9128;SDS011;4599;50.906;6.786;2023-06-24T09:04:15;6.85;;;4.95;;
9128;SDS011;4599;50.906;6.786;2023-06-24T09:08:26;7.15;;;5.15;;
9128;SDS011;4599;50.906;6.786;2023-06-24T09:12:27;7.05;;;5.18;;
9128;SDS011;4599;50.906;6.786;2023-06-24T09:16:32;8.07;;;4.80;;
9128;SDS011;4599;50.906;6.786;2023-06-24T09:20:33;6.13;;;4.07;;
9128;SDS011;4599;50.906;6.786;2023-06-24T09:24:36;6.28;;;5.15;;
9128;SDS011;4599;50.906;6.786;2023-06-24T09:28:38;10.68;;;5.30;;
9128;SDS011;4599;50.906;6.786;2023-06-24T09:32:42;6.03;;;4.47;;
9128;SDS011;4599;50.906;6.786;2023-06-24T09:36:44;8.70;;;4.72;;
9128;SDS011;4599;50.906;6.786;2023-06-24T09:40:48;5.60;;;3.50;;
9128;SDS011;4599;50.906;6.786;2023-06-24T09:44:53;5.63;;;3.75;;
9128;SDS011;4599;50.906;6.786;2023-06-24T09:48:55;5.38;;;3.38;;
9128;SDS011;4599;50.906;6.786;2023-06-24T09:52:56;6.47;;;3.70;;
9128;SDS011;4599;50.906;6.786;2023-06-24T09:57:01;5.07;;;3.80;;
9128;SDS011;4599;50.906;6.786;2023-06-24T10:01:04;6.43;;;4.18;;
9128;SDS011;4599;50.906;6.786;2023-06-24T10:05:07;5.22;;;3.45;;
9128;SDS011;4599;50.906;6.786;2023-06-24T10:09:09;4.95;;;4.13;;
9128;SDS011;4599;50.906;6.786;2023-06-24T10:13:12;7.53;;;3.97;;
9128;SDS011;4599;50.906;6.786;2023-06-24T10:17:14;6.13;;;4.18;;
9128;SDS011;4599;50.906;6.786;2023-06-24T10:21:15;5.45;;;3.67;;
9128;SDS011;4599;50.906;6.786;2023-06-24T10:25:19;4.60;;;3.25;;
9128;SDS011;4599;50.906;6.786;2023-06-24T10:29:31;8.05;;;4.10;;
9128;SDS011;4599;50.906;6.786;2023-06-24T10:33:34;5.93;;;3.70;;
9128;SDS011;4599;50.906;6.786;2023-06-24T10:37:39;8.13;;;3.75;;
9128;SDS011;4599;50.906;6.786;2023-06-24T10:41:41;5.22;;;3.65;;
9128;SDS011;4599;50.906;6.786;2023-06-24T10:45:49;6.07;;;3.53;;
9128;SDS011;4599;50.906;6.786;2023-06-24T10:49:51;5.15;;;3.72;;
9128;SDS011;4599;50.906;6.786;2023-06-24T10:53:53;8.73;;;4.35;;
9128;SDS011;4599;50.906;6.786;2023-06-24T10:57:55;9.00;;;4.10;;
9128;SDS011;4599;50.906;6.786;2023-06-24T11:02:14;5.40;;;4.35;;
9128;SDS011;4599;50.906;6.786;2023-06-24T11:06:16;7.45;;;4.35;;
9128;SDS011;4599;50.906;6.786;2023-06-24T11:10:18;8.75;;;4.00;;
9128;SDS011;4599;50.906;6.786;2023-06-24T11:14:22;5.80;;;3.80;;
9128;SDS011;4599;50.906;6.786;2023-06-24T11:18:25;6.10;;;4.00;;
9128;SDS011;4599;50.906;6.786;2023-06-24T11:22:26;8.00;;;4.30;;
9128;SDS011;4599;50.906;6.786;2023-06-24T11:26:28;6.13;;;3.72;;
9128;SDS011;4599;50.906;6.786;2023-06-24T11:30:33;10.63;;;4.60;;
9128;SDS011;4599;50.906;6.786;2023-06-24T11:34:37;8.80;;;3.80;;
9128;SDS011;4599;50.906;6.786;2023-06-24T11:38:39;7.78;;;5.13;;
9128;SDS011;4599;50.906;6.786;2023-06-24T11:42:41;7.28;;;3.83;;
9128;SDS011;4599;50.906;6.786;2023-06-24T11:46:43;9.07;;;4.53;;
9128;SDS011;4599;50.906;6.786;2023-06-24T11:50:49;4.72;;;3.75;;
9128;SDS011;4599;50.906;6.786;2023-06-24T11:54:54;6.57;;;3.53;;
9128;SDS011;4599;50.906;6.786;2023-06-24T11:58:56;4.43;;;3.72;;
9128;SDS011;4599;50.906;6.786;2023-06-24T12:02:58;5.38;;;3.88;;
9128;SDS011;4599;50.906;6.786;2023-06-24T12:07:02;7.13;;;3.78;;
9128;SDS011;4599;50.906;6.786;2023-06-24T12:11:04;6.65;;;4.00;;
9128;SDS011;4599;50.906;6.786;2023-06-24T12:15:05;6.13;;;3.80;;
9128;SDS011;4599;50.906;6.786;2023-06-24T12:19:10;6.10;;;3.45;;
9128;SDS011;4599;50.906;6.786;2023-06-24T12:23:13;4.10;;;3.53;;
9128;SDS011;4599;50.906;6.786;2023-06-24T12:27:14;4.50;;;3.40;;
9128;SDS011;4599;50.906;6.786;2023-06-24T12:31:16;9.63;;;3.78;;
9128;SDS011;4599;50.906;6.786;2023-06-24T12:35:17;5.43;;;3.42;;
9128;SDS011;4599;50.906;6.786;2023-06-24T12:39:20;4.57;;;3.33;;
9128;SDS011;4599;50.906;6.786;2023-06-24T12:43:22;4.82;;;3.40;;
9128;SDS011;4599;50.906;6.786;2023-06-24T12:47:23;6.60;;;3.22;;
9128;SDS011;4599;50.906;6.786;2023-06-24T12:51:25;3.88;;;3.38;;
9128;SDS011;4599;50.906;6.786;2023-06-24T12:55:28;7.53;;;3.50;;
9128;SDS011;4599;50.906;6.786;2023-06-24T12:59:29;3.88;;;3.47;;
9128;SDS011;4599;50.906;6.786;2023-06-24T13:03:31;5.45;;;3.22;;
9128;SDS011;4599;50.906;6.786;2023-06-24T13:07:32;4.70;;;3.35;;
9128;SDS011;4599;50.906;6.786;2023-06-24T13:11:35;3.38;;;3.08;;
9128;SDS011;4599;50.906;6.786;2023-06-24T13:15:37;6.75;;;3.10;;
9128;SDS011;4599;50.906;6.786;2023-06-24T13:19:38;3.22;;;2.90;;
9128;SDS011;4599;50.906;6.786;2023-06-24T13:23:40;4.22;;;2.90;;
9128;SDS011;4599;50.906;6.786;2023-06-24T13:27:43;4.47;;;4.00;;
9128;SDS011;4599;50.906;6.786;2023-06-24T13:31:45;4.07;;;2.88;;
9128;SDS011;4599;50.906;6.786;2023-06-24T13:35:47;4.10;;;2.65;;
9128;SDS011;4599;50.906;6.786;2023-06-24T13:39:48;3.63;;;2.72;;
9128;SDS011;4599;50.906;6.786;2023-06-24T13:43:51;4.50;;;2.85;;
9128;SDS011;4599;50.906;6.786;2023-06-24T13:47:53;3.72;;;2.70;;
9128;SDS011;4599;50.906;6.786;2023-06-24T13:51:54;3.00;;;2.70;;
9128;SDS011;4599;50.906;6.786;2023-06-24T13:55:56;3.15;;;2.88;;
9128;SDS011;4599;50.906;6.786;2023-06-24T13:59:58;2.85;;;2.58;;
9128;SDS011;4599;50.906;6.786;2023-06-24T14:04:00;3.95;;;2.58;;
9128;SDS011;4599;50.906;6.786;2023-06-24T14:08:01;3.92;;;2.72;;
9128;SDS011;4599;50.906;6.786;2023-06-24T14:12:03;2.70;;;2.47;;
9128;SDS011;4599;50.906;6.786;2023-06-24T14:16:07;2.92;;;2.55;;
9128;SDS011;4599;50.906;6.786;2023-06-24T14:20:09;2.85;;;2.65;;
9128;SDS011;4599;50.906;6.786;2023-06-24T14:24:11;4.97;;;2.90;;
9128;SDS011;4599;50.906;6.786;2023-06-24T14:28:17;4.82;;;2.83;;
9128;SDS011;4599;50.906;6.786;2023-06-24T14:32:20;2.55;;;2.35;;
9128;SDS011;4599;50.906;6.786;2023-06-24T14:36:22;3.13;;;2.60;;
9128;SDS011;4599;50.906;6.786;2023-06-24T14:40:23;3.17;;;2.72;;
9128;SDS011;4599;50.906;6.786;2023-06-24T14:44:25;2.90;;;2.65;;
9128;SDS011;4599;50.906;6.786;2023-06-24T14:48:28;8.18;;;2.65;;
9128;SDS011;4599;50.906;6.786;2023-06-24T14:52:29;4.28;;;2.40;;
9128;SDS011;4599;50.906;6.786;2023-06-24T14:56:31;3.90;;;2.30;;
9128;SDS011;4599;50.906;6.786;2023-06-24T15:00:32;4.40;;;2.50;;
9128;SDS011;4599;50.906;6.786;2023-06-24T15:04:36;4.00;;;3.53;;
9128;SDS011;4599;50.906;6.786;2023-06-24T15:08:37;3.63;;;2.58;;
9128;SDS011;4599;50.906;6.786;2023-06-24T15:12:39;5.70;;;2.45;;
9128;SDS011;4599;50.906;6.786;2023-06-24T15:16:40;3.30;;;2.42;;
9128;SDS011;4599;50.906;6.786;2023-06-24T15:20:43;3.90;;;2.28;;
9128;SDS011;4599;50.906;6.786;2023-06-24T15:24:45;2.20;;;2.10;;
9128;SDS011;4599;50.906;6.786;2023-06-24T15:28:46;2.70;;;2.50;;
9128;SDS011;4599;50.906;6.786;2023-06-24T15:32:48;2.17;;;2.05;;
9128;SDS011;4599;50.906;6.786;2023-06-24T15:36:51;3.80;;;2.50;;
9128;SDS011;4599;50.906;6.786;2023-06-24T15:40:52;2.20;;;2.00;;
9128;SDS011;4599;50.906;6.786;2023-06-24T15:44:54;2.70;;;2.50;;
9128;SDS011;4599;50.906;6.786;2023-06-24T15:48:55;3.03;;;2.45;;
9128;SDS011;4599;50.906;6.786;2023-06-24T15:52:58;2.60;;;2.40;;
9128;SDS011;4599;50.906;6.786;2023-06-24T15:56:59;3.22;;;2.33;;
9128;SDS011;4599;50.906;6.786;2023-06-24T16:01:01;3.10;;;2.38;;
9128;SDS011;4599;50.906;6.786;2023-06-24T16:05:03;2.95;;;2.20;;
9128;SDS011;4599;50.906;6.786;2023-06-24T16:09:06;4.43;;;2.40;;
9128;SDS011;4599;50.906;6.786;2023-06-24T16:13:08;3.45;;;2.25;;
9128;SDS011;4599;50.906;6.786;2023-06-24T16:17:09;3.30;;;2.25;;
9128;SDS011;4599;50.906;6.786;2023-06-24T16:21:11;2.88;;;2.50;;
9128;SDS011;4599;50.906;6.786;2023-06-24T16:25:13;4.65;;;2.55;;
9128;SDS011;4599;50.906;6.786;2023-06-24T16:29:15;3.30;;;2.28;;
9128;SDS011;4599;50.906;6.786;2023-06-24T16:33:16;6.15;;;2.45;;
9128;SDS011;4599;50.906;6.786;2023-06-24T16:37:18;3.42;;;2.40;;
9128;SDS011;4599;50.906;6.786;2023-06-24T16:41:21;5.60;;;2.13;;
9128;SDS011;4599;50.906;6.786;2023-06-24T16:45:22;3.20;;;2.10;;
9128;SDS011;4599;50.906;6.786;2023-06-24T16:49:24;2.60;;;2.40;;
9128;SDS011;4599;50.906;6.786;2023-06-24T16:53:25;2.35;;;2.00;;
9128;SDS011;4599;50.906;6.786;2023-06-24T16:57:28;2.63;;;2.20;;
9128;SDS011;4599;50.906;6.786;2023-06-24T17:01:29;2.15;;;2.03;;
9128;SDS011;4599;50.906;6.786;2023-06-24T17:05:31;2.63;;;2.03;;
9128;SDS011;4599;50.906;6.786;2023-06-24T17:09:32;2.40;;;2.20;;
9128;SDS011;4599;50.906;6.786;2023-06-24T17:13:35;3.83;;;2.67;;
9128;SDS011;4599;50.906;6.786;2023-06-24T17:17:36;3.60;;;2.00;;
9128;SDS011;4599;50.906;6.786;2023-06-24T17:21:38;2.92;;;2.25;;
9128;SDS011;4599;50.906;6.786;2023-06-24T17:25:40;4.15;;;2.13;;
9128;SDS011;4599;50.906;6.786;2023-06-24T17:29:43;2.72;;;2.08;;
9128;SDS011;4599;50.906;6.786;2023-06-24T17:33:44;4.25;;;1.98;;
9128;SDS011;4599;50.906;6.786;2023-06-24T17:37:45;4.53;;;2.50;;
9128;SDS011;4599;50.906;6.786;2023-06-24T17:41:47;2.10;;;1.90;;
9128;SDS011;4599;50.906;6.786;2023-06-24T17:45:50;4.32;;;2.50;;
9128;SDS011;4599;50.906;6.786;2023-06-24T17:49:51;5.03;;;2.50;;
9128;SDS011;4599;50.906;6.786;2023-06-24T17:53:53;5.00;;;2.13;;
9128;SDS011;4599;50.906;6.786;2023-06-24T17:57:54;2.33;;;2.13;;
9128;SDS011;4599;50.906;6.786;2023-06-24T18:01:57;2.42;;;2.10;;
9128;SDS011;4599;50.906;6.786;2023-06-24T18:05:58;4.47;;;2.35;;
9128;SDS011;4599;50.906;6.786;2023-06-24T18:10:00;3.33;;;2.47;;
9128;SDS011;4599;50.906;6.786;2023-06-24T18:14:01;6.80;;;2.58;;
9128;SDS011;4599;50.906;6.786;2023-06-24T18:18:04;6.50;;;2.55;;
9128;SDS011;4599;50.906;6.786;2023-06-24T18:22:06;8.98;;;2.55;;
9128;SDS011;4599;50.906;6.786;2023-06-24T18:26:07;5.77;;;2.03;;
9128;SDS011;4599;50.906;6.786;2023-06-24T18:30:09;2.25;;;1.92;;
9128;SDS011;4599;50.906;6.786;2023-06-24T18:34:12;4.17;;;2.37;;
9128;SDS011;4599;50.906;6.786;2023-06-24T18:38:14;3.30;;;2.10;;
9128;SDS011;4599;50.906;6.786;2023-06-24T18:42:15;3.23;;;2.10;;
9128;SDS011;4599;50.906;6.786;2023-06-24T18:46:17;2.60;;;2.00;;
9128;SDS011;4599;50.906;6.786;2023-06-24T18:50:21;3.00;;;2.03;;
9128;SDS011;4599;50.906;6.786;2023-06-24T18:54:23;2.73;;;1.97;;
9128;SDS011;4599;50.906;6.786;2023-06-24T18:58:24;2.67;;;1.90;;
9128;SDS011;4599;50.906;6.786;2023-06-24T19:02:26;2.47;;;2.00;;
9128;SDS011;4599;50.906;6.786;2023-06-24T19:06:29;3.00;;;2.23;;
9128;SDS011;4599;50.906;6.786;2023-06-24T19:10:30;3.00;;;1.90;;
9128;SDS011;4599;50.906;6.786;2023-06-24T19:14:32;3.07;;;1.87;;
9128;SDS011;4599;50.906;6.786;2023-06-24T19:18:33;6.77;;;2.30;;
9128;SDS011;4599;50.906;6.786;2023-06-24T19:22:36;3.40;;;2.10;;
9128;SDS011;4599;50.906;6.786;2023-06-24T19:26:37;3.70;;;2.27;;
9128;SDS011;4599;50.906;6.786;2023-06-24T19:30:39;2.27;;;2.07;;
9128;SDS011;4599;50.906;6.786;2023-06-24T19:34:40;2.13;;;1.93;;
9128;SDS011;4599;50.906;6.786;2023-06-24T19:38:43;2.17;;;1.93;;
9128;SDS011;4599;50.906;6.786;2023-06-24T19:42:45;3.23;;;1.90;;
9128;SDS011;4599;50.906;6.786;2023-06-24T19:46:46;3.67;;;2.00;;
9128;SDS011;4599;50.906;6.786;2023-06-24T19:50:48;1.90;;;1.70;;
9128;SDS011;4599;50.906;6.786;2023-06-24T19:54:51;2.70;;;1.90;;
9128;SDS011;4599;50.906;6.786;2023-06-24T19:58:53;2.70;;;2.00;;
9128;SDS011;4599;50.906;6.786;2023-06-24T20:02:54;3.23;;;1.97;;
9128;SDS011;4599;50.906;6.786;2023-06-24T20:06:56;2.50;;;2.00;;
9128;SDS011;4599;50.906;6.786;2023-06-24T20:10:58;3.70;;;1.97;;
9128;SDS011;4599;50.906;6.786;2023-06-24T20:15:00;3.20;;;1.90;;
9128;SDS011;4599;50.906;6.786;2023-06-24T20:19:01;3.23;;;1.83;;
9128;SDS011;4599;50.906;6.786;2023-06-24T20:23:03;6.53;;;2.10;;
9128;SDS011;4599;50.906;6.786;2023-06-24T20:27:06;3.67;;;2.43;;
9128;SDS011;4599;50.906;6.786;2023-06-24T20:31:07;3.67;;;2.10;;
9128;SDS011;4599;50.906;6.786;2023-06-24T20:35:09;3.60;;;2.10;;
9128;SDS011;4599;50.906;6.786;2023-06-24T20:39:10;2.93;;;2.10;;
9128;SDS011;4599;50.906;6.786;2023-06-24T20:43:14;2.30;;;1.90;;
9128;SDS011;4599;50.906;6.786;2023-06-24T20:47:16;2.50;;;2.03;;
9128;SDS011;4599;50.906;6.786;2023-06-24T20:51:18;2.53;;;2.07;;
9128;SDS011;4599;50.906;6.786;2023-06-24T20:55:19;3.80;;;2.10;;
9128;SDS011;4599;50.906;6.786;2023-06-24T20:59:22;2.10;;;1.90;;
9128;SDS011;4599;50.906;6.786;2023-06-24T21:03:24;2.60;;;2.37;;
9128;SDS011;4599;50.906;6.786;2023-06-24T21:07:26;3.47;;;2.33;;
9128;SDS011;4599;50.906;6.786;2023-06-24T21:11:27;3.50;;;2.30;;
9128;SDS011;4599;50.906;6.786;2023-06-24T21:15:30;2.60;;;1.87;;
9128;SDS011;4599;50.906;6.786;2023-06-24T21:19:31;3.20;;;2.07;;
9128;SDS011;4599;50.906;6.786;2023-06-24T21:23:33;2.90;;;2.13;;
9128;SDS011;4599;50.906;6.786;2023-06-24T21:27:35;4.80;;;2.63;;
9128;SDS011;4599;50.906;6.786;2023-06-24T21:31:37;4.10;;;2.60;;
9128;SDS011;4599;50.906;6.786;2023-06-24T21:35:39;5.03;;;3.00;;
9128;SDS011;4599;50.906;6.786;2023-06-24T21:39:50;2.67;;;2.47;;
9128;SDS011;4599;50.906;6.786;2023-06-24T21:43:51;3.90;;;2.37;;
9128;SDS011;4599;50.906;6.786;2023-06-24T21:47:54;2.63;;;2.10;;
9128;SDS011;4599;50.906;6.786;2023-06-24T21:51:55;2.37;;;2.17;;
9128;SDS011;4599;50.906;6.786;2023-06-24T21:55:57;3.07;;;2.13;;
9128;SDS011;4599;50.906;6.786;2023-06-24T21:59:58;2.83;;;2.10;;
9128;SDS011;4599;50.906;6.786;2023-06-24T22:04:01;2.07;;;1.87;;
9128;SDS011;4599;50.906;6.786;2023-06-24T22:08:03;2.70;;;2.20;;
9128;SDS011;4599;50.906;6.786;2023-06-24T22:12:06;3.03;;;2.17;;
9128;SDS011;4599;50.906;6.786;2023-06-24T22:16:07;4.47;;;2.60;;
9128;SDS011;4599;50.906;6.786;2023-06-24T22:20:10;2.57;;;2.23;;
9128;SDS011;4599;50.906;6.786;2023-06-24T22:24:12;2.77;;;2.40;;
9128;SDS011;4599;50.906;6.786;2023-06-24T22:28:14;2.97;;;2.10;;
9128;SDS011;4599;50.906;6.786;2023-06-24T22:32:15;3.03;;;2.50;;
9128;SDS011;4599;50.906;6.786;2023-06-24T22:36:19;2.37;;;2.17;;
9128;SDS011;4599;50.906;6.786;2023-06-24T22:40:20;3.23;;;2.60;;
9128;SDS011;4599;50.906;6.786;2023-06-24T22:44:22;3.27;;;2.37;;
9128;SDS011;4599;50.906;6.786;2023-06-24T22:48:24;2.63;;;2.13;;
9128;SDS011;4599;50.906;6.786;2023-06-24T22:52:26;2.43;;;2.23;;
9128;SDS011;4599;50.906;6.786;2023-06-24T22:56:28;3.13;;;2.50;;
9128;SDS011;4599;50.906;6.786;2023-06-24T23:00:29;4.17;;;2.50;;
9128;SDS011;4599;50.906;6.786;2023-06-24T23:04:31;2.63;;;2.43;;
9128;SDS011;4599;50.906;6.786;2023-06-24T23:08:34;2.77;;;2.47;;
9128;SDS011;4599;50.906;6.786;2023-06-24T23:12:36;4.73;;;2.90;;
9128;SDS011;4599;50.906;6.786;2023-06-24T23:16:38;3.27;;;2.53;;
9128;SDS011;4599;50.906;6.786;2023-06-24T23:20:40;2.50;;;2.30;;
9128;SDS011;4599;50.906;6.786;2023-06-24T23:24:43;5.77;;;2.83;;
9128;SDS011;4599;50.906;6.786;2023-06-24T23:28:45;2.70;;;2.30;;
9128;SDS011;4599;50.906;6.786;2023-06-24T23:32:47;5.93;;;2.27;;
9128;SDS011;4599;50.906;6.786;2023-06-24T23:36:49;3.97;;;2.47;;
9128;SDS011;4599;50.906;6.786;2023-06-24T23:40:53;5.17;;;2.70;;
9128;SDS011;4599;50.906;6.786;2023-06-24T23:44:55;5.13;;;2.50;;
9128;SDS011;4599;50.906;6.786;2023-06-24T23:48:56;3.80;;;2.40;;
9128;SDS011;4599;50.906;6.786;2023-06-24T23:52:58;3.97;;;2.40;;
9128;SDS011;4599;50.906;6.786;2023-06-24T23:57:02;3.53;;;2.10;;
